Station: Sweers Island

  Atmospheric Gas Attenuation - ITU Rec 676-11   --------------- db/100km ---------------
Date Time Temp RH % AH g/m3 Dew Point Wind Direction Speed kph Gust kph Barometer mB Rainfall Since 9am 24GHz 47GHz 76GHz 122GHz 134GHz 241GHz
26 09:00 29 85 24.42 26.3 4 1005.1 63 52.1 48.2 98.5 261.1 296.0 1028.7
25 09:00 29.3 86 25.11 26.7 6 1006.2 0 53.5 49.5 101.7 269.5 306.4 1064.9
24 09:00 23.4 96 20.19 22.7 0 1009.3 9 43.7 43.0 84.4 223.5 248.1 861.6
23 09:00 27.5 82 21.7 24.2 11 1008.7 2 46.4 43.8 87.1 230.7 258.2 897.3
22 09:00 27 88 22.65 24.9 19 1008.8 2 48.5 45.9 92.4 244.8 275.4 956.8
21 09:00 26.1 94 23.01 25 15 1008.4 21 49.4 47.2 95.4 252.6 284.7 989.0
20 09:00 26.3 89 22.03 24.3 22 1007.2 6 47.3 45.0 90.1 238.6 267.5 929.5
19 09:00 26.8 81 20.62 23.4 26 1007 152 44.2 42.0 82.6 218.7 243.3 845.4
18 09:00 28.1 83 22.7 25 28 1006 40 48.5 45.3 91.1 241.4 271.6 943.9
17 09:00 28 82 22.3 24.7 9 1006.1 9 47.7 44.6 89.3 236.5 265.6 922.9
16 09:00 27.2 87 22.64 24.8 1006.3 5 48.5 45.7 92.0 243.6 274.0 952.1
15 09:00 30.2 79 24.22 26.3 2 1006.7 2 51.4 47.2 96.1 254.6 288.3 1002.1
14 09:00 29.6 80 23.74 25.8 4 1008.1 0.4 50.5 46.6 94.6 250.5 283.1 984.0
13 09:00 30 81 24.57 26.5 15 1008 3 52.2 48.0 98.2 260.1 295.0 1025.3
12 09:00 28.7 85 24.02 25.9 7 1007.9 2 51.2 47.7 97.1 257.3 291.1 1011.8
11 09:00 30.1 80 24.4 26.3 7 1007.4 8 51.8 47.6 97.2 257.4 291.7 1014.0
10 09:00 24.6 100 22.51 24.6 37 1009 23 48.5 47.0 94.8 251.0 282.2 980.2
09 09:00 30.1 81 24.7 26.6 4 1007.2 4 52.5 48.2 98.6 261.4 296.6 1030.8
08 09:00 29.9 82 24.74 26.6 15 1003.9 4 52.6 48.3 98.9 262.0 297.4 1033.7
07 09:00 29.5 83 24.5 26.3 28 1000.9 32 52.2 47.9 98.0 259.6 294.5 1023.6
06 09:00 27.7 88 23.54 25.6 15 1002.7 17 50.4 47.1 95.6 253.3 286.2 994.5
05 09:00 31.5 72 23.67 25.9 19 1003.5 0 50.1 45.2 91.5 242.6 274.0 952.8
04 09:00 31.5 75 24.66 26.6 19 1004.6 0 52.2 47.2 96.4 255.5 289.9 1007.8
03 09:00 32.2 68 23.21 25.6 9 1005.1 0 49.1 44.0 88.6 234.8 264.6 920.3
02 09:00 32 76 25.67 27.2 6 1006 0.5 54.2 49.0 100.9 267.3 304.4 1058.3
01 09:00 32 72 24.31 26.4 6 1006.2 0 51.4 46.3 94.2 249.6 282.7 982.9
31 09:00 32 76 25.67 27.2 9 1005.6 3 54.3 48.9 100.8 267.2 304.3 1058.0
30 09:00 31.2 78 25.24 26.9 4 1004.6 0 53.5 48.5 99.7 264.2 300.4 1044.4
29 09:00 30.7 71 22.36 24.9 4 1004 0 47.5 43.2 86.3 228.6 256.7 892.3
28 09:00 30.7 68 21.42 24.1 9 1003.7 0 45.5 41.4 81.9 216.9 242.3 842.6
27 09:00 31.1 66 21.24 24.1 7 1003.6 0 45.1 40.9 80.6 213.6 238.3 828.8
26 09:00 29.9 74 22.32 24.9 28 1002.8 0 47.5 43.4 86.9 230.3 258.6 899.0
25 09:00 31.1 66 21.24 24.1 22 1005.1 0 45.1 40.9 80.7 213.8 238.6 829.6
24 09:00 30.9 67 21.33 24.2 4 1007.1 0 45.3 41.3 81.5 215.8 240.9 837.6
23 09:00 30 73 22.14 24.7 7 1008.1 1 47.1 43.3 86.3 228.6 256.4 891.2
22 09:00 29.1 87 25.13 26.7 4 1008.4 16 53.5 49.7 102.3 271.0 308.0 1070.4
21 09:00 31.7 68 22.6 25.1 6 1009.4 0 47.8 43.3 86.6 229.5 257.8 896.5
20 09:00 28.2 76 20.9 23.6 7 1010 0 44.7 41.9 82.6 218.6 243.6 846.5
19 09:00 31.5 75 24.66 26.5 0 1008.7 0 52.2 47.4 96.7 256.3 290.6 1010.4
18 09:00 32.5 62 21.5 24.4 4 1006.9 0 45.4 40.8 80.5 213.3 238.3 828.7
17 09:00 31.5 59 19.4 22.6 4 1006.5 0 41.2 37.5 72.2 191.2 210.9 733.3
16 09:00 30.5 78 24.31 26.2 9 1005.4 0 51.6 47.1 96.0 254.5 288.3 1002.2
15 09:00 26.2 92 22.65 24.9 4 1006.8 10 48.6 46.3 93.3 247.1 278.0 965.9
14 09:00 30.2 79 24.22 26.3 4 1008.1 0.2 51.4 47.2 96.2 254.8 288.5 1003.0
13 09:00 29 78 22.41 24.9 0 1007.7 2 47.8 44.3 88.8 235.1 264.0 917.7
12 09:00 29.5 83 24.5 26.4 4 1007.7 0 52.1 48.2 98.5 260.9 295.8 1028.1
11 09:00 30 84 25.48 27.1 4 1007.6 0 54.1 49.9 102.8 272.3 309.9 1077.2
10 09:00 31 77 24.65 26.5 0 1006.7 0 52.2 47.6 97.2 257.5 292.1 1015.3
09 09:00 30.8 74 23.43 25.7 4 1006.4 0 49.7 45.3 91.4 242.2 273.3 950.3
08 09:00 30.4 78 24.17 26.2 0 1007.2 0 51.3 47.0 95.6 253.3 286.8 996.9
07 09:00 31 81 25.93 27.3 4 1005.9 0 54.9 50.1 103.5 274.4 312.8 1087.4
06 09:00 31.6 71 23.47 25.7 7 1005.3 0 49.7 44.9 90.6 240.0 270.8 941.8
05 09:00 29.9 86 25.94 27.3 9 1004.6 0 55.1 50.7 105.0 278.4 317.5 1103.3
04 09:00 26.6 86 21.65 24 19 1003.1 223 46.5 43.9 87.6 231.9 259.6 902.1
03 09:00 24.9 100 22.89 24.9 46 1000.1 162 49.4 47.2 95.7 253.6 285.8 992.8
02 09:00 27.5 96 25.4 26.9 0 1004.5 65 54.4 51.1 105.7 279.9 318.7 1107.3
01 09:00 29.5 86 25.39 26.9 0 1005.6 0 54.0 49.9 102.8 272.5 310.1 1077.9
31 09:00 26.4 88 21.91 24.2 0 1005.6 10 47.1 44.6 89.3 236.4 265.0 920.6
30 09:00 27.7 81 21.67 24.1 11 1006.5 2 46.4 43.5 86.6 229.3 256.7 892.0
29 09:00 29.5 86 25.39 26.9 9 1006.1 5 54.0 49.9 102.9 272.6 310.2 1078.2
28 09:00 26.1 100 24.48 26.1 9 1007.3 1 52.6 50.2 103.0 272.8 309.4 1074.9
27 09:00 27.5 93 24.61 26.2 32 1008.5 17 52.6 49.7 101.8 269.7 306.0 1063.1
26 09:00 30.9 70 22.29 24.8 2 1008.3 0 47.3 43.1 86.0 227.8 255.6 888.8
25 09:00 27.5 89 23.55 25.5 19 1008.8 0 50.4 47.5 96.4 255.2 288.3 1001.6
24 09:00 30 86 26.08 27.4 4 1008.9 78 55.4 51.2 106.0 280.7 320.2 1113.0
23 09:00 30 88 26.69 27.9 15 1007.6 0 56.7 52.4 109.0 289.0 330.3 1148.0
22 09:00 32.4 73 25.18 26.9 17 1006.2 0 53.2 47.8 97.9 259.5 294.9 1025.5
21 09:00 31.3 76 24.72 26.7 24 1006.4 0 52.3 47.5 97.1 257.3 291.9 1015.0
20 09:00 30.2 78 23.92 25.9 6 1008 0 50.8 46.6 94.7 250.8 283.7 986.1
19 09:00 30.8 74 23.43 25.7 2 1007.8 3 49.7 45.3 91.5 242.5 273.6 951.2
18 09:00 30.1 84 25.62 27.2 22 1007.3 0.7 54.4 50.1 103.3 273.8 311.8 1083.6
17 09:00 30.7 87 27.4 28.4 26 1006 2 58.1 53.3 111.6 295.8 339.0 1178.0
16 09:00 30.9 82 26.11 27.6 15 1006.6 0 55.3 50.6 104.7 277.3 316.4 1099.7
15 09:00 30 76 23.05 25.3 7 1006.6 1 49.0 45.0 90.6 240.0 270.3 939.7
14 09:00 31.4 63 20.6 23.6 4 1006.3 0.1 43.7 39.7 77.6 205.5 228.4 794.3
13 09:00 31 84 26.89 28.1 15 1008.4 0 56.9 52.2 108.7 288.0 329.4 1144.9
12 09:00 30.9 73 23.24 25.6 15 1009.9 0.1 49.3 45.0 90.6 240.1 270.6 940.9
11 09:00 29 81 23.27 25.5 17 1011.8 0 49.6 46.2 93.3 247.0 278.5 967.8
10 09:00 29.6 81 24.04 26 15 1011.5 0 51.1 47.4 96.3 255.1 288.6 1003.0
09 09:00 34 34 12.76 16 13 1010.6 0 27.2 26.3 44.6 117.7 121.2 420.6
08 09:00 32.4 71 24.49 26.6 11 1012.1 0.4 51.7 46.7 95.0 251.6 285.0 991.2
07 09:00 31.1 82 26.39 27.7 17 1010.3 0 55.9 51.2 106.1 281.1 320.9 1115.5
06 09:00 32.1 81 27.5 28.4 9 1009.8 0 58.0 52.8 110.3 292.4 335.0 1164.4
05 09:00 32.5 74 25.66 27.4 22 1011 0 54.1 48.9 100.5 266.3 303.1 1054.0
04 09:00 32.8 73 25.72 27.3 17 1010.6 0 54.2 48.8 100.4 266.0 302.8 1052.8
03 09:00 31.1 71 22.85 25.2 15 1010.8 0 48.4 44.2 88.6 234.7 264.0 917.8
02 09:00 32.6 78 27.19 28.4 15 1010.9 0 57.3 51.9 108.1 286.4 327.7 1139.5
01 09:00 32.6 72 25.1 26.9 7 1010.5 0 52.9 47.7 97.6 258.5 293.6 1021.1
30 09:00 30.9 74 23.56 25.7 22 1009.7 0 49.9 45.6 92.2 244.2 275.6 958.2
29 09:00 30.8 68 21.53 24.4 28 1009.3 0 45.7 41.8 82.7 218.9 244.6 850.4
28 09:00 31.8 61 20.38 23.4 30 1010.6 0 43.2 39.3 76.5 202.5 224.7 781.3
27 09:00 30.8 77 24.38 26.3 17 1010.6 0 51.7 47.3 96.4 255.3 289.2 1005.5
26 09:00 33.1 54 19.33 22.8 4 1007.6 1 40.8 36.7 70.5 186.7 205.7 715.5
25 09:00 31.1 71 22.85 25.3 19 1005.8 0 48.4 44.0 88.3 233.8 263.1 914.9
24 09:00 31.9 67 22.51 25.1 15 1007.7 0 47.6 43.0 85.9 227.5 255.5 888.4
23 06:00 29.8 79 23.7 25.9 11 1009.7 50.4 46.5 94.2 249.6 282.0 980.2
22 09:00 30.9 73 23.24 25.6 22 1011.7 0 49.2 45.1 90.8 240.4 270.9 942.0
21 09:00 31.4 56 18.31 21.7 30 1011.9 0 38.9 35.9 68.0 179.8 196.7 683.8
20 09:00 31.4 52 17.01 20.5 30 1011.4 0 36.2 33.7 62.5 165.3 178.9 621.9
19 09:00 31.8 67 22.39 25 24 1012.4 0 47.3 43.0 85.7 227.1 254.8 885.9

Last Refresh: 27-Feb-2021 02:52:47

Most of the information presented on this site is sourced from the Bureau of Meteorology.  Copyright in all material sourced from the Bureau of Meteorology resides with the Commonwealth of Australia.